sensor_id;sensor_type;location;lat;lon;timestamp;pressure;altitude;pressure_sealevel;temperature;humidity
74542;BME280;63015;45.378;20.360;2022-10-17T00:00:09;101993.47;;;12.26;59.97
74542;BME280;63015;45.378;20.360;2022-10-17T00:02:10;101997.00;;;12.26;59.86
74542;BME280;63015;45.378;20.360;2022-10-17T00:04:11;101990.84;;;12.24;59.91
74542;BME280;63015;45.378;20.360;2022-10-17T00:06:13;102005.69;;;12.25;59.88
74542;BME280;63015;45.378;20.360;2022-10-17T00:08:16;102005.69;;;12.25;59.98
74542;BME280;63015;45.378;20.360;2022-10-17T00:10:17;102004.72;;;12.20;60.06
74542;BME280;63015;45.378;20.360;2022-10-17T00:12:18;102000.38;;;12.21;60.09
74542;BME280;63015;45.378;20.360;2022-10-17T00:14:18;102004.72;;;12.19;60.29
74542;BME280;63015;45.378;20.360;2022-10-17T00:16:30;101996.78;;;12.15;60.45
74542;BME280;63015;45.378;20.360;2022-10-17T00:18:31;102006.34;;;12.13;60.32
74542;BME280;63015;45.378;20.360;2022-10-17T00:20:34;102003.75;;;12.15;60.27
74542;BME280;63015;45.378;20.360;2022-10-17T00:22:35;102010.66;;;12.11;60.53
74542;BME280;63015;45.378;20.360;2022-10-17T00:24:35;102013.28;;;12.13;60.29
74542;BME280;63015;45.378;20.360;2022-10-17T00:26:36;102014.16;;;12.12;60.24
74542;BME280;63015;45.378;20.360;2022-10-17T00:28:36;102017.63;;;12.11;60.57
74542;BME280;63015;45.378;20.360;2022-10-17T00:30:38;102019.44;;;12.13;60.22
74542;BME280;63015;45.378;20.360;2022-10-17T00:32:39;102021.97;;;12.10;60.21
74542;BME280;63015;45.378;20.360;2022-10-17T00:34:40;102017.53;;;12.06;60.38
74542;BME280;63015;45.378;20.360;2022-10-17T00:36:41;102014.91;;;12.05;60.55
74542;BME280;63015;45.378;20.360;2022-10-17T00:38:44;102014.91;;;12.05;60.43
74542;BME280;63015;45.378;20.360;2022-10-17T00:40:45;102008.72;;;12.01;60.52
74542;BME280;63015;45.378;20.360;2022-10-17T00:42:49;102009.50;;;11.95;61.05
74542;BME280;63015;45.378;20.360;2022-10-17T00:47:02;102013.75;;;11.90;61.13
74542;BME280;63015;45.378;20.360;2022-10-17T00:49:06;102010.22;;;11.90;61.01
74542;BME280;63015;45.378;20.360;2022-10-17T00:51:07;102018.00;;;11.85;60.90
74542;BME280;63015;45.378;20.360;2022-10-17T00:53:08;102018.72;;;11.79;61.22
74542;BME280;63015;45.378;20.360;2022-10-17T00:55:27;102014.25;;;11.72;61.74
74542;BME280;63015;45.378;20.360;2022-10-17T00:57:30;102018.59;;;11.73;61.65
74542;BME280;63015;45.378;20.360;2022-10-17T00:59:33;102015.13;;;11.73;61.73
74542;BME280;63015;45.378;20.360;2022-10-17T01:01:35;102013.38;;;11.73;61.44
74542;BME280;63015;45.378;20.360;2022-10-17T01:03:36;102012.47;;;11.70;61.69
74542;BME280;63015;45.378;20.360;2022-10-17T01:05:37;102015.13;;;11.73;61.41
74542;BME280;63015;45.378;20.360;2022-10-17T01:07:39;102014.25;;;11.72;61.68
74542;BME280;63015;45.378;20.360;2022-10-17T01:09:41;102012.41;;;11.68;61.77
74542;BME280;63015;45.378;20.360;2022-10-17T01:25:51;102017.31;;;11.51;62.20
74542;BME280;63015;45.378;20.360;2022-10-17T01:32:23;102005.97;;;11.49;61.83
74542;BME280;63015;45.378;20.360;2022-10-17T01:35:00;102016.28;;;11.44;62.73
74542;BME280;63015;45.378;20.360;2022-10-17T01:37:07;102013.56;;;11.40;62.46
74542;BME280;63015;45.378;20.360;2022-10-17T01:41:26;102013.47;;;11.33;63.08
74542;BME280;63015;45.378;20.360;2022-10-17T01:45:48;102007.34;;;11.33;62.91
74542;BME280;63015;45.378;20.360;2022-10-17T01:47:51;102021.97;;;11.25;63.43
74542;BME280;63015;45.378;20.360;2022-10-17T01:49:55;102024.63;;;11.28;62.82
74542;BME280;63015;45.378;20.360;2022-10-17T01:52:07;102025.59;;;11.31;62.45
74542;BME280;63015;45.378;20.360;2022-10-17T01:54:10;102026.28;;;11.23;62.86
74542;BME280;63015;45.378;20.360;2022-10-17T01:56:13;102035.00;;;11.23;62.81
74542;BME280;63015;45.378;20.360;2022-10-17T01:58:21;102028.78;;;11.18;62.98
74542;BME280;63015;45.378;20.360;2022-10-17T02:00:26;102033.19;;;11.21;63.00
74542;BME280;63015;45.378;20.360;2022-10-17T02:02:27;102037.59;;;11.23;62.63
74542;BME280;63015;45.378;20.360;2022-10-17T02:04:29;102040.97;;;11.19;62.80
74542;BME280;63015;45.378;20.360;2022-10-17T02:06:34;102045.34;;;11.20;62.72
74542;BME280;63015;45.378;20.360;2022-10-17T02:08:45;102045.38;;;11.22;62.93
74542;BME280;63015;45.378;20.360;2022-10-17T02:11:05;102047.91;;;11.17;62.69
74542;BME280;63015;45.378;20.360;2022-10-17T02:15:45;102048.56;;;11.08;63.71
74542;BME280;63015;45.378;20.360;2022-10-17T02:20:29;102066.84;;;11.08;63.60
74542;BME280;63015;45.378;20.360;2022-10-17T02:29:28;102063.91;;;10.96;63.92
74542;BME280;63015;45.378;20.360;2022-10-17T02:31:40;102076.06;;;10.94;64.26
74542;BME280;63015;45.378;20.360;2022-10-17T02:33:47;102079.50;;;10.93;63.88
74542;BME280;63015;45.378;20.360;2022-10-17T02:35:53;102085.66;;;10.95;63.88
74542;BME280;63015;45.378;20.360;2022-10-17T02:37:55;102083.84;;;10.92;64.05
74542;BME280;63015;45.378;20.360;2022-10-17T02:39:58;102079.56;;;10.96;63.86
74542;BME280;63015;45.378;20.360;2022-10-17T02:42:02;102077.88;;;10.96;64.20
74542;BME280;63015;45.378;20.360;2022-10-17T02:44:06;102094.38;;;10.97;63.55
74542;BME280;63015;45.378;20.360;2022-10-17T02:46:08;102088.34;;;10.99;63.59
74542;BME280;63015;45.378;20.360;2022-10-17T02:48:14;102085.69;;;10.96;64.27
74542;BME280;63015;45.378;20.360;2022-10-17T02:50:18;102090.94;;;10.98;63.69
74542;BME280;63015;45.378;20.360;2022-10-17T02:52:36;102094.41;;;10.98;64.05
74542;BME280;63015;45.378;20.360;2022-10-17T02:56:54;102096.97;;;10.95;64.30
74542;BME280;63015;45.378;20.360;2022-10-17T02:58:58;102101.38;;;10.98;63.91
74542;BME280;63015;45.378;20.360;2022-10-17T03:01:00;102097.00;;;10.97;64.07
74542;BME280;63015;45.378;20.360;2022-10-17T03:05:21;102096.22;;;11.01;63.76
74542;BME280;63015;45.378;20.360;2022-10-17T03:07:22;102097.91;;;10.99;63.58
74542;BME280;63015;45.378;20.360;2022-10-17T03:09:23;102095.28;;;10.97;64.02
74542;BME280;63015;45.378;20.360;2022-10-17T03:11:24;102093.50;;;10.96;63.87
74542;BME280;63015;45.378;20.360;2022-10-17T03:13:25;102101.41;;;10.99;63.64
74542;BME280;63015;45.378;20.360;2022-10-17T03:15:25;102105.75;;;10.99;63.70
74542;BME280;63015;45.378;20.360;2022-10-17T03:17:26;102109.19;;;10.98;63.75
74542;BME280;63015;45.378;20.360;2022-10-17T03:19:27;102099.63;;;10.98;63.86
74542;BME280;63015;45.378;20.360;2022-10-17T03:21:27;102110.88;;;10.96;63.56
74542;BME280;63015;45.378;20.360;2022-10-17T03:23:29;102115.25;;;10.97;63.58
74542;BME280;63015;45.378;20.360;2022-10-17T03:25:30;102107.34;;;10.92;63.89
74542;BME280;63015;45.378;20.360;2022-10-17T03:27:31;102098.56;;;10.90;63.89
74542;BME280;63015;45.378;20.360;2022-10-17T03:29:32;102105.47;;;10.88;64.04
74542;BME280;63015;45.378;20.360;2022-10-17T03:31:33;102103.59;;;10.82;64.37
74542;BME280;63015;45.378;20.360;2022-10-17T03:33:35;102106.22;;;10.82;64.38
74542;BME280;63015;45.378;20.360;2022-10-17T03:35:38;102111.44;;;10.82;64.27
74542;BME280;63015;45.378;20.360;2022-10-17T03:37:40;102104.38;;;10.78;64.46
74542;BME280;63015;45.378;20.360;2022-10-17T03:39:41;102116.59;;;10.81;64.22
74542;BME280;63015;45.378;20.360;2022-10-17T03:41:41;102114.88;;;10.81;64.39
74542;BME280;63015;45.378;20.360;2022-10-17T03:43:42;102114.00;;;10.81;64.36
74542;BME280;63015;45.378;20.360;2022-10-17T03:45:43;102105.25;;;10.79;64.07
74542;BME280;63015;45.378;20.360;2022-10-17T03:47:44;102113.06;;;10.79;64.05
74542;BME280;63015;45.378;20.360;2022-10-17T03:49:44;102110.41;;;10.76;64.37
74542;BME280;63015;45.378;20.360;2022-10-17T03:51:45;102112.88;;;10.71;64.43
74542;BME280;63015;45.378;20.360;2022-10-17T03:53:48;102111.22;;;10.75;64.24
74542;BME280;63015;45.378;20.360;2022-10-17T03:55:49;102108.59;;;10.73;64.29
74542;BME280;63015;45.378;20.360;2022-10-17T03:57:51;102108.56;;;10.72;64.41
74542;BME280;63015;45.378;20.360;2022-10-17T03:59:54;102112.84;;;10.69;64.50
74542;BME280;63015;45.378;20.360;2022-10-17T04:01:55;102114.47;;;10.66;64.68
74542;BME280;63015;45.378;20.360;2022-10-17T04:03:56;102120.53;;;10.65;64.64
74542;BME280;63015;45.378;20.360;2022-10-17T04:06:01;102112.66;;;10.62;64.89
74542;BME280;63015;45.378;20.360;2022-10-17T04:08:02;102111.81;;;10.63;64.81
74542;BME280;63015;45.378;20.360;2022-10-17T04:10:23;102115.28;;;10.63;64.62
74542;BME280;63015;45.378;20.360;2022-10-17T04:12:24;102115.22;;;10.60;64.92
74542;BME280;63015;45.378;20.360;2022-10-17T04:14:26;102117.63;;;10.52;65.38
74542;BME280;63015;45.378;20.360;2022-10-17T04:16:28;102122.06;;;10.57;65.22
74542;BME280;63015;45.378;20.360;2022-10-17T04:18:35;102122.09;;;10.58;65.43
74542;BME280;63015;45.378;20.360;2022-10-17T04:20:36;102122.22;;;10.63;64.92
74542;BME280;63015;45.378;20.360;2022-10-17T04:22:37;102121.31;;;10.61;65.40
74542;BME280;63015;45.378;20.360;2022-10-17T04:24:38;102120.41;;;10.59;65.43
74542;BME280;63015;45.378;20.360;2022-10-17T04:26:58;102118.66;;;10.59;65.67
74542;BME280;63015;45.378;20.360;2022-10-17T04:29:02;102105.66;;;10.61;65.66
74542;BME280;63015;45.378;20.360;2022-10-17T04:31:07;102117.06;;;10.64;65.78
74542;BME280;63015;45.378;20.360;2022-10-17T04:33:30;102110.03;;;10.62;65.33
74542;BME280;63015;45.378;20.360;2022-10-17T04:35:31;102121.34;;;10.62;65.29
74542;BME280;63015;45.378;20.360;2022-10-17T04:37:36;102119.59;;;10.61;65.31
74542;BME280;63015;45.378;20.360;2022-10-17T04:39:42;102130.84;;;10.60;65.36
74542;BME280;63015;45.378;20.360;2022-10-17T04:41:44;102120.47;;;10.62;65.29
74542;BME280;63015;45.378;20.360;2022-10-17T04:43:45;102129.09;;;10.59;65.10
74542;BME280;63015;45.378;20.360;2022-10-17T04:45:46;102129.06;;;10.58;65.49
74542;BME280;63015;45.378;20.360;2022-10-17T04:47:47;102129.91;;;10.58;65.58
74542;BME280;63015;45.378;20.360;2022-10-17T04:49:47;102126.44;;;10.58;65.34
74542;BME280;63015;45.378;20.360;2022-10-17T04:51:49;102126.44;;;10.58;65.50
74542;BME280;63015;45.378;20.360;2022-10-17T04:54:04;102126.44;;;10.58;65.38
74542;BME280;63015;45.378;20.360;2022-10-17T04:58:09;102114.22;;;10.55;65.51
74542;BME280;63015;45.378;20.360;2022-10-17T05:00:11;102122.78;;;10.51;65.62
74542;BME280;63015;45.378;20.360;2022-10-17T05:02:27;102120.16;;;10.51;65.53
74542;BME280;63015;45.378;20.360;2022-10-17T05:04:27;102120.06;;;10.46;65.80
74542;BME280;63015;45.378;20.360;2022-10-17T05:06:28;102118.44;;;10.50;65.95
74542;BME280;63015;45.378;20.360;2022-10-17T05:08:58;102116.81;;;10.55;65.41
74542;BME280;63015;45.378;20.360;2022-10-17T05:10:59;102122.78;;;10.51;65.85
74542;BME280;63015;45.378;20.360;2022-10-17T05:13:00;102117.78;;;10.59;65.20
74542;BME280;63015;45.378;20.360;2022-10-17T05:15:05;102122.84;;;10.52;65.84
74542;BME280;63015;45.378;20.360;2022-10-17T05:17:07;102132.41;;;10.53;65.76
74542;BME280;63015;45.378;20.360;2022-10-17T05:19:10;102133.38;;;10.57;65.47
74542;BME280;63015;45.378;20.360;2022-10-17T05:21:17;102134.16;;;10.55;65.47
74542;BME280;63015;45.378;20.360;2022-10-17T05:23:18;102139.50;;;10.59;65.38
74542;BME280;63015;45.378;20.360;2022-10-17T05:25:19;102141.38;;;10.65;65.23
74542;BME280;63015;45.378;20.360;2022-10-17T05:27:20;102153.69;;;10.69;65.25
74542;BME280;63015;45.378;20.360;2022-10-17T05:29:21;102148.50;;;10.71;65.34
74542;BME280;63015;45.378;20.360;2022-10-17T05:31:29;102152.13;;;10.76;65.07
74542;BME280;63015;45.378;20.360;2022-10-17T05:33:30;102154.72;;;10.76;65.00
74542;BME280;63015;45.378;20.360;2022-10-17T05:35:31;102162.59;;;10.77;65.09
74542;BME280;63015;45.378;20.360;2022-10-17T05:37:31;102160.16;;;10.85;64.92
74542;BME280;63015;45.378;20.360;2022-10-17T05:39:33;102151.56;;;10.89;64.75
74542;BME280;63015;45.378;20.360;2022-10-17T05:41:34;102160.63;;;11.03;64.66
74542;BME280;63015;45.378;20.360;2022-10-17T05:43:35;102160.00;;;11.14;64.45
74542;BME280;63015;45.378;20.360;2022-10-17T05:45:35;102167.31;;;11.27;63.83
74542;BME280;63015;45.378;20.360;2022-10-17T05:47:41;102171.91;;;11.38;63.48
74542;BME280;63015;45.378;20.360;2022-10-17T05:49:43;102169.53;;;11.48;63.24
74542;BME280;63015;45.378;20.360;2022-10-17T05:51:44;102173.22;;;11.57;63.20
74542;BME280;63015;45.378;20.360;2022-10-17T05:53:45;102176.09;;;11.69;62.77
74542;BME280;63015;45.378;20.360;2022-10-17T05:55:58;102174.63;;;11.82;62.49
74542;BME280;63015;45.378;20.360;2022-10-17T05:57:59;102174.00;;;11.94;62.17
74542;BME280;63015;45.378;20.360;2022-10-17T06:00:05;102180.34;;;12.02;61.79
74542;BME280;63015;45.378;20.360;2022-10-17T06:02:14;102186.53;;;12.07;61.52
74542;BME280;63015;45.378;20.360;2022-10-17T06:04:16;102185.13;;;12.23;61.50
74542;BME280;63015;45.378;20.360;2022-10-17T06:06:17;102186.25;;;12.38;61.11
74542;BME280;63015;45.378;20.360;2022-10-17T06:08:20;102182.16;;;12.50;60.89
74542;BME280;63015;45.378;20.360;2022-10-17T06:10:21;102189.31;;;12.61;60.60
74542;BME280;63015;45.378;20.360;2022-10-17T06:12:22;102188.72;;;12.74;60.44
74542;BME280;63015;45.378;20.360;2022-10-17T06:14:23;102198.56;;;12.89;60.04
74542;BME280;63015;45.378;20.360;2022-10-17T06:16:27;102203.34;;;13.13;59.60
74542;BME280;63015;45.378;20.360;2022-10-17T06:18:28;102200.19;;;13.33;59.40
74542;BME280;63015;45.378;20.360;2022-10-17T06:20:29;102200.63;;;13.58;59.12
74542;BME280;63015;45.378;20.360;2022-10-17T06:22:29;102209.69;;;13.81;58.21
74542;BME280;63015;45.378;20.360;2022-10-17T06:24:30;102208.31;;;14.11;57.21
74542;BME280;63015;45.378;20.360;2022-10-17T06:26:30;102204.84;;;14.12;56.99
74542;BME280;63015;45.378;20.360;2022-10-17T06:28:32;102204.25;;;14.35;56.63
74542;BME280;63015;45.378;20.360;2022-10-17T06:30:32;102207.09;;;14.54;55.42
74542;BME280;63015;45.378;20.360;2022-10-17T06:32:34;102209.13;;;14.76;54.89
74542;BME280;63015;45.378;20.360;2022-10-17T06:34:34;102208.41;;;14.94;55.08
74542;BME280;63015;45.378;20.360;2022-10-17T06:36:35;102209.47;;;15.15;54.68
74542;BME280;63015;45.378;20.360;2022-10-17T06:38:36;102211.38;;;15.36;54.67
74542;BME280;63015;45.378;20.360;2022-10-17T06:40:40;102210.63;;;15.50;54.02
74542;BME280;63015;45.378;20.360;2022-10-17T06:42:42;102214.28;;;15.76;53.57
74542;BME280;63015;45.378;20.360;2022-10-17T06:45:09;102218.84;;;16.01;52.99
74542;BME280;63015;45.378;20.360;2022-10-17T06:47:27;102223.22;;;15.97;51.75
74542;BME280;63015;45.378;20.360;2022-10-17T06:49:31;102221.53;;;16.13;52.18
74542;BME280;63015;45.378;20.360;2022-10-17T06:51:47;102218.97;;;16.30;51.03
74542;BME280;63015;45.378;20.360;2022-10-17T06:53:51;102235.72;;;16.52;51.33
74542;BME280;63015;45.378;20.360;2022-10-17T06:56:09;102228.69;;;16.57;50.96
74542;BME280;63015;45.378;20.360;2022-10-17T06:58:25;102228.75;;;16.67;51.05
74542;BME280;63015;45.378;20.360;2022-10-17T07:01:05;102234.00;;;16.73;51.08
74542;BME280;63015;45.378;20.360;2022-10-17T07:03:08;102240.16;;;16.72;50.92
74542;BME280;63015;45.378;20.360;2022-10-17T07:05:09;102241.91;;;16.81;50.70
74542;BME280;63015;45.378;20.360;2022-10-17T07:07:10;102244.66;;;17.15;50.70
74542;BME280;63015;45.378;20.360;2022-10-17T07:09:11;102242.03;;;17.38;49.36
74542;BME280;63015;45.378;20.360;2022-10-17T07:11:13;102244.66;;;17.61;49.10
74542;BME280;63015;45.378;20.360;2022-10-17T07:13:16;102251.66;;;17.73;48.34
74542;BME280;63015;45.378;20.360;2022-10-17T07:15:17;102243.72;;;17.88;48.14
74542;BME280;63015;45.378;20.360;2022-10-17T07:17:18;102238.44;;;18.01;47.24
74542;BME280;63015;45.378;20.360;2022-10-17T07:19:20;102246.31;;;18.13;47.55
74542;BME280;63015;45.378;20.360;2022-10-17T07:21:21;102244.56;;;18.04;47.03
74542;BME280;63015;45.378;20.360;2022-10-17T07:23:22;102248.09;;;18.11;47.09
74542;BME280;63015;45.378;20.360;2022-10-17T07:25:23;102251.50;;;18.36;47.27
74542;BME280;63015;45.378;20.360;2022-10-17T07:27:28;102253.09;;;18.67;46.38
74542;BME280;63015;45.378;20.360;2022-10-17T07:29:29;102257.50;;;18.69;45.28
74542;BME280;63015;45.378;20.360;2022-10-17T07:31:45;102261.91;;;18.70;45.70
74542;BME280;63015;45.378;20.360;2022-10-17T07:33:48;102265.47;;;18.55;44.88
74542;BME280;63015;45.378;20.360;2022-10-17T07:35:49;102265.47;;;18.57;44.76
74542;BME280;63015;45.378;20.360;2022-10-17T07:37:51;102266.38;;;18.56;45.07
74542;BME280;63015;45.378;20.360;2022-10-17T07:39:54;102262.75;;;18.74;44.84
74542;BME280;63015;45.378;20.360;2022-10-17T07:41:56;102268.94;;;18.68;44.25
74542;BME280;63015;45.378;20.360;2022-10-17T07:43:58;102271.53;;;18.78;44.35
74542;BME280;63015;45.378;20.360;2022-10-17T07:46:05;102270.59;;;18.86;44.28
74542;BME280;63015;45.378;20.360;2022-10-17T07:48:07;102264.44;;;18.92;43.48
74542;BME280;63015;45.378;20.360;2022-10-17T07:50:08;102273.22;;;18.94;43.92
74542;BME280;63015;45.378;20.360;2022-10-17T07:52:09;102258.88;;;19.32;44.54
74542;BME280;63015;45.378;20.360;2022-10-17T07:54:11;102267.31;;;19.71;43.73
74542;BME280;63015;45.378;20.360;2022-10-17T07:56:11;102268.22;;;19.69;43.06
74542;BME280;63015;45.378;20.360;2022-10-17T07:58:12;102257.47;;;19.89;42.42
74542;BME280;63015;45.378;20.360;2022-10-17T08:00:13;102263.66;;;19.88;42.60
74542;BME280;63015;45.378;20.360;2022-10-17T08:02:21;102266.44;;;19.71;41.83
74542;BME280;63015;45.378;20.360;2022-10-17T08:04:22;102277.13;;;19.62;42.41
74542;BME280;63015;45.378;20.360;2022-10-17T08:06:23;102269.03;;;19.76;42.51
74542;BME280;63015;45.378;20.360;2022-10-17T08:08:24;102273.41;;;19.80;42.28
74542;BME280;63015;45.378;20.360;2022-10-17T08:10:25;102269.94;;;19.73;41.72
74542;BME280;63015;45.378;20.360;2022-10-17T08:12:27;102262.94;;;19.69;42.18
74542;BME280;63015;45.378;20.360;2022-10-17T08:14:31;102267.22;;;19.79;41.85
74542;BME280;63015;45.378;20.360;2022-10-17T08:16:31;102268.09;;;19.84;42.06
74542;BME280;63015;45.378;20.360;2022-10-17T08:18:33;102268.13;;;19.83;42.40
74542;BME280;63015;45.378;20.360;2022-10-17T08:20:34;102268.56;;;20.20;42.12
74542;BME280;63015;45.378;20.360;2022-10-17T08:22:36;102266.34;;;20.60;40.59
74542;BME280;63015;45.378;20.360;2022-10-17T08:24:37;102264.81;;;20.40;41.04
74542;BME280;63015;45.378;20.360;2022-10-17T08:26:38;102271.78;;;20.47;40.27
74542;BME280;63015;45.378;20.360;2022-10-17T08:28:39;102271.75;;;20.52;40.10
74542;BME280;63015;45.378;20.360;2022-10-17T08:30:40;102264.44;;;20.73;40.35
74542;BME280;63015;45.378;20.360;2022-10-17T08:32:41;102280.34;;;20.68;39.82
74542;BME280;63015;45.378;20.360;2022-10-17T08:34:42;102277.03;;;20.50;39.74
74542;BME280;63015;45.378;20.360;2022-10-17T08:36:42;102272.66;;;20.49;39.96
74542;BME280;63015;45.378;20.360;2022-10-17T08:38:43;102282.47;;;20.40;39.59
74542;BME280;63015;45.378;20.360;2022-10-17T08:40:47;102279.69;;;20.49;39.34
74542;BME280;63015;45.378;20.360;2022-10-17T08:45:35;102275.31;;;20.46;39.82
74542;BME280;63015;45.378;20.360;2022-10-17T08:47:41;102272.16;;;20.86;39.52
74542;BME280;63015;45.378;20.360;2022-10-17T08:49:49;102271.22;;;20.89;40.02
74542;BME280;63015;45.378;20.360;2022-10-17T08:51:57;102272.38;;;21.29;38.92
74542;BME280;63015;45.378;20.360;2022-10-17T08:54:21;102266.69;;;21.55;38.76
74542;BME280;63015;45.378;20.360;2022-10-17T08:56:33;102275.97;;;21.81;38.52
74542;BME280;63015;45.378;20.360;2022-10-17T08:58:37;102269.03;;;21.72;38.04
74542;BME280;63015;45.378;20.360;2022-10-17T09:00:42;102270.22;;;21.54;38.34
74542;BME280;63015;45.378;20.360;2022-10-17T09:18:58;102276.03;;;21.76;37.25
74542;BME280;63015;45.378;20.360;2022-10-17T09:23:22;102280.66;;;21.66;36.87
74542;BME280;63015;45.378;20.360;2022-10-17T09:25:24;102270.50;;;21.89;36.64
74542;BME280;63015;45.378;20.360;2022-10-17T09:27:43;102272.41;;;21.82;36.77
74542;BME280;63015;45.378;20.360;2022-10-17T09:29:45;102277.53;;;21.91;36.17
74542;BME280;63015;45.378;20.360;2022-10-17T09:31:53;102279.38;;;21.88;36.37
74542;BME280;63015;45.378;20.360;2022-10-17T09:34:00;102281.66;;;22.06;35.92
74542;BME280;63015;45.378;20.360;2022-10-17T09:36:04;102278.69;;;22.22;36.38
74542;BME280;63015;45.378;20.360;2022-10-17T09:38:05;102284.88;;;22.22;36.81
74542;BME280;63015;45.378;20.360;2022-10-17T09:40:20;102281.34;;;22.23;36.49
74542;BME280;63015;45.378;20.360;2022-10-17T09:42:24;102276.59;;;22.39;36.43
74542;BME280;63015;45.378;20.360;2022-10-17T09:44:34;102287.16;;;22.42;35.57
74542;BME280;63015;45.378;20.360;2022-10-17T09:46:35;102290.16;;;22.24;35.01
74542;BME280;63015;45.378;20.360;2022-10-17T09:48:51;102289.06;;;22.34;35.15
74542;BME280;63015;45.378;20.360;2022-10-17T09:50:55;102294.34;;;22.37;35.35
74542;BME280;63015;45.378;20.360;2022-10-17T09:53:00;102291.50;;;21.99;35.98
74542;BME280;63015;45.378;20.360;2022-10-17T09:55:16;102292.78;;;22.25;35.53
74542;BME280;63015;45.378;20.360;2022-10-17T09:57:19;102286.97;;;22.52;35.73
74542;BME280;63015;45.378;20.360;2022-10-17T09:59:34;102291.63;;;22.81;35.44
74542;BME280;63015;45.378;20.360;2022-10-17T10:01:35;102287.16;;;22.83;34.63
74542;BME280;63015;45.378;20.360;2022-10-17T10:03:35;102295.00;;;22.89;34.44
74542;BME280;63015;45.378;20.360;2022-10-17T10:05:36;102290.84;;;22.77;34.54
74542;BME280;63015;45.378;20.360;2022-10-17T10:07:37;102282.78;;;22.80;34.76
74542;BME280;63015;45.378;20.360;2022-10-17T10:09:38;102285.72;;;23.07;34.80
74542;BME280;63015;45.378;20.360;2022-10-17T10:11:50;102279.19;;;22.83;34.21
74542;BME280;63015;45.378;20.360;2022-10-17T10:13:51;102277.22;;;22.91;34.70
74542;BME280;63015;45.378;20.360;2022-10-17T10:15:52;102280.00;;;22.87;34.30
74542;BME280;63015;45.378;20.360;2022-10-17T10:17:53;102272.16;;;22.80;33.54
74542;BME280;63015;45.378;20.360;2022-10-17T10:19:53;102279.81;;;22.94;33.96
74542;BME280;63015;45.378;20.360;2022-10-17T10:22:05;102277.00;;;23.38;34.42
74542;BME280;63015;45.378;20.360;2022-10-17T10:24:14;102269.63;;;23.13;33.53
74542;BME280;63015;45.378;20.360;2022-10-17T10:26:23;102270.38;;;23.20;33.08
74542;BME280;63015;45.378;20.360;2022-10-17T10:28:27;102276.78;;;23.10;33.28
74542;BME280;63015;45.378;20.360;2022-10-17T10:30:29;102274.56;;;22.91;33.31
74542;BME280;63015;45.378;20.360;2022-10-17T10:32:35;102271.81;;;22.96;34.06
74542;BME280;63015;45.378;20.360;2022-10-17T10:34:44;102278.38;;;23.19;33.69
74542;BME280;63015;45.378;20.360;2022-10-17T10:37:01;102270.94;;;22.95;32.33
74542;BME280;63015;45.378;20.360;2022-10-17T10:39:03;102277.84;;;23.03;33.67
74542;BME280;63015;45.378;20.360;2022-10-17T10:41:06;102274.91;;;22.77;33.20
74542;BME280;63015;45.378;20.360;2022-10-17T10:43:27;102275.19;;;23.03;32.43
74542;BME280;63015;45.378;20.360;2022-10-17T10:47:36;102266.56;;;22.91;33.92
74542;BME280;63015;45.378;20.360;2022-10-17T10:49:38;102273.06;;;23.19;33.52
74542;BME280;63015;45.378;20.360;2022-10-17T10:51:42;102261.88;;;23.03;32.46
74542;BME280;63015;45.378;20.360;2022-10-17T10:56:17;102266.81;;;23.21;31.89
74542;BME280;63015;45.378;20.360;2022-10-17T10:58:22;102266.63;;;23.29;32.07
74542;BME280;63015;45.378;20.360;2022-10-17T11:00:26;102267.63;;;23.23;32.31
74542;BME280;63015;45.378;20.360;2022-10-17T11:02:35;102264.19;;;23.18;30.91
74542;BME280;63015;45.378;20.360;2022-10-17T11:04:41;102264.31;;;23.12;31.49
74542;BME280;63015;45.378;20.360;2022-10-17T11:06:44;102261.66;;;23.12;31.75
74542;BME280;63015;45.378;20.360;2022-10-17T11:11:16;102254.59;;;23.48;31.98
74542;BME280;63015;45.378;20.360;2022-10-17T11:13:30;102254.84;;;23.38;32.03
74542;BME280;63015;45.378;20.360;2022-10-17T11:17:41;102252.41;;;23.63;32.20
74542;BME280;63015;45.378;20.360;2022-10-17T11:20:02;102250.88;;;23.87;30.91
74542;BME280;63015;45.378;20.360;2022-10-17T11:22:33;102249.41;;;24.08;31.00
74542;BME280;63015;45.378;20.360;2022-10-17T11:26:49;102242.50;;;24.03;30.64
74542;BME280;63015;45.378;20.360;2022-10-17T11:28:57;102236.47;;;23.96;30.55
74542;BME280;63015;45.378;20.360;2022-10-17T11:31:12;102226.41;;;24.06;30.34
74542;BME280;63015;45.378;20.360;2022-10-17T11:35:40;102237.91;;;24.08;30.46
74542;BME280;63015;45.378;20.360;2022-10-17T11:37:48;102232.03;;;24.26;30.71
74542;BME280;63015;45.378;20.360;2022-10-17T11:39:59;102236.81;;;24.15;30.50
74542;BME280;63015;45.378;20.360;2022-10-17T11:44:35;102224.66;;;24.06;31.00
74542;BME280;63015;45.378;20.360;2022-10-17T11:46:36;102228.50;;;23.96;30.47
74542;BME280;63015;45.378;20.360;2022-10-17T11:51:07;102228.72;;;24.18;30.18
74542;BME280;63015;45.378;20.360;2022-10-17T11:53:21;102219.03;;;24.16;30.47
74542;BME280;63015;45.378;20.360;2022-10-17T11:55:27;102213.44;;;24.25;30.01
74542;BME280;63015;45.378;20.360;2022-10-17T11:57:44;102213.34;;;24.28;29.79
74542;BME280;63015;45.378;20.360;2022-10-17T12:00:02;102212.53;;;24.26;29.80
74542;BME280;63015;45.378;20.360;2022-10-17T12:02:14;102212.63;;;24.23;30.54
74542;BME280;63015;45.378;20.360;2022-10-17T12:11:33;102202.41;;;24.37;29.78
74542;BME280;63015;45.378;20.360;2022-10-17T12:15:41;102203.44;;;24.61;30.38